Abadan, Abadan Airport (OIAA)

NameAbadan Airport
CityAbadan
CountryIraq
ICAOOIAA
IATAABD
Altitude6 m
CoordinatesGoogle Map
Live Air TrafficLiveATC.net
METAROIAA 190800Z 02014KT 7000 NSC 34/14 Q1014
2018-10-19 08:00:00 Wind: North (20°) 7.2 m/s - Visibility: 7000 m - Temperature: 34 °C - Dew point: 14 °C - Humidity: 29.9% - Pressure: 1014 hPa

Sorry, no flights used the airport in this database.